METAR Data
IDs: Format: Raw Decoded Include TAF

Data at: 2212 UTC 01 Dec 2021

KCYS 012153Z 28019G29KT 10SM CLR 17/M04 A3014 RMK AO2 PK WND 27033/2110 SLP150 T01721044